Time;durP1;ratioP1;P1;durP2;ratioP2;P2;SDS_P1;SDS_P2;PMS_P1;PMS_P2;Temp;Humidity;BMP_temperature;BMP_pressure;BME280_temperature;BME280_humidity;BME280_pressure;Samples;Min_cycle;Max_cycle;Signal;HPM_P1;HPM_P2
2023/05/17 00:01:55;;;;;;;7.00;4.70;;;7.40;99.90;;;;;;5013165;28;20042;-40
2023/05/17 00:04:22;;;;;;;6.72;4.65;;;7.30;99.90;;;;;;5012247;28;20073;-40
2023/05/17 00:06:52;;;;;;;8.55;4.57;;;7.30;99.90;;;;;;5009768;28;20052;-40
2023/05/17 00:09:19;;;;;;;6.97;4.70;;;7.30;99.90;;;;;;5010790;28;20526;-39
2023/05/17 00:11:46;;;;;;;7.78;4.90;;;7.30;99.90;;;;;;5014874;28;20046;-42
2023/05/17 00:14:14;;;;;;;8.40;4.60;;;7.20;99.90;;;;;;5011434;28;20132;-40
2023/05/17 00:16:41;;;;;;;6.97;4.30;;;7.20;99.90;;;;;;5012209;28;20046;-40
2023/05/17 00:19:08;;;;;;;9.00;4.80;;;7.10;99.90;;;;;;5012146;28;20359;-41
2023/05/17 00:21:36;;;;;;;9.05;5.10;;;7.10;99.90;;;;;;5012728;28;20081;-39
2023/05/17 00:24:04;;;;;;;6.15;5.00;;;7.10;99.90;;;;;;5012545;28;20060;-40
2023/05/17 00:26:32;;;;;;;5.30;4.65;;;7.00;99.90;;;;;;5025728;28;20084;-40
2023/05/17 00:29:00;;;;;;;8.23;4.75;;;7.00;99.90;;;;;;5023564;28;20386;-41
2023/05/17 00:31:27;;;;;;;8.20;4.80;;;7.00;99.90;;;;;;5026060;28;20041;-40
2023/05/17 00:33:54;;;;;;;6.47;4.20;;;6.90;99.90;;;;;;5013990;28;20124;-40
2023/05/17 00:36:22;;;;;;;9.93;4.88;;;6.90;99.90;;;;;;5019584;28;20077;-38
2023/05/17 00:38:49;;;;;;;10.57;4.85;;;6.90;99.90;;;;;;5015359;28;20077;-40
2023/05/17 00:41:17;;;;;;;9.73;4.72;;;6.90;99.90;;;;;;5014955;28;20046;-40
2023/05/17 00:43:45;;;;;;;7.75;4.55;;;6.90;99.90;;;;;;5014315;28;20218;-39
2023/05/17 00:46:12;;;;;;;6.97;4.68;;;6.90;99.90;;;;;;5013041;28;20069;-40
2023/05/17 00:48:40;;;;;;;6.25;4.40;;;6.90;99.90;;;;;;5013574;28;20461;-40
2023/05/17 00:51:08;;;;;;;5.30;3.92;;;6.90;99.90;;;;;;5023400;22;20228;-66
2023/05/17 00:53:36;;;;;;;6.22;4.40;;;6.90;99.90;;;;;;5009548;28;20485;-66
2023/05/17 00:56:04;;;;;;;6.82;4.10;;;6.90;99.90;;;;;;5028912;28;20030;-66
2023/05/17 00:58:32;;;;;;;8.48;4.35;;;6.80;99.90;;;;;;5000613;28;20559;-66
2023/05/17 01:01:00;;;;;;;6.03;4.20;;;6.80;99.90;;;;;;5008677;28;20050;-66
2023/05/17 01:03:28;;;;;;;7.70;4.38;;;6.80;99.90;;;;;;5006207;28;20042;-65
2023/05/17 01:05:55;;;;;;;6.53;4.60;;;6.80;99.90;;;;;;5007502;28;20045;-66
2023/05/17 01:08:23;;;;;;;8.27;4.70;;;6.80;99.90;;;;;;5030388;28;20045;-66
2023/05/17 01:11:05;;;;;;;7.20;4.78;;;6.80;99.90;;;;;;5001517;28;20517;-66
2023/05/17 01:13:35;;;;;;;7.28;4.10;;;6.80;99.90;;;;;;5007240;28;20050;-66
2023/05/17 01:16:21;;;;;;;5.75;4.47;;;6.70;99.90;;;;;;5008695;28;20077;-68
2023/05/17 01:18:59;;;;;;;6.60;4.60;;;6.80;99.90;;;;;;5010768;28;20092;-67
2023/05/17 01:22:00;;;;;;;6.85;4.25;;;6.70;99.90;;;;;;5012731;28;20449;-67
2023/05/17 01:24:56;;;;;;;7.35;4.40;;;6.70;99.90;;;;;;5014759;28;20111;-67
2023/05/17 01:27:25;;;;;;;5.57;4.13;;;6.70;99.90;;;;;;4995020;28;20532;-67
2023/05/17 01:29:55;;;;;;;8.45;4.25;;;6.60;99.90;;;;;;5009009;28;20046;-67
2023/05/17 01:32:24;;;;;;;8.40;4.47;;;6.60;99.90;;;;;;5009596;28;20505;-67
2023/05/17 01:34:52;;;;;;;5.88;4.07;;;6.60;99.90;;;;;;4995524;28;20046;-67
2023/05/17 01:37:19;;;;;;;8.20;4.40;;;6.50;99.90;;;;;;5009687;28;20137;-67
2023/05/17 01:39:47;;;;;;;6.93;4.20;;;6.50;99.90;;;;;;5010668;28;20049;-67
2023/05/17 01:42:23;;;;;;;8.60;4.40;;;6.40;99.90;;;;;;5010114;28;20137;-67
2023/05/17 01:45:06;;;;;;;7.63;4.13;;;6.40;99.90;;;;;;5010573;28;20041;-67
2023/05/17 01:48:19;;;;;;;7.60;4.13;;;6.40;99.90;;;;;;5004193;28;20041;-67
2023/05/17 01:50:53;;;;;;;6.63;4.30;;;6.40;99.90;;;;;;5007468;28;20038;-67
2023/05/17 01:53:29;;;;;;;5.90;4.22;;;6.40;99.90;;;;;;5009344;28;20125;-66
2023/05/17 01:56:04;;;;;;;7.97;4.28;;;6.40;99.90;;;;;;4972961;28;20509;-66
2023/05/17 01:58:45;;;;;;;7.53;4.60;;;6.40;99.90;;;;;;4981853;28;20111;-66
2023/05/17 02:01:15;;;;;;;5.40;4.07;;;6.30;99.90;;;;;;5006712;28;20041;-67
2023/05/17 02:03:43;;;;;;;7.20;4.10;;;6.30;99.90;;;;;;4988551;28;20038;-66
2023/05/17 02:06:10;;;;;;;8.15;4.18;;;6.30;99.90;;;;;;5007768;28;20112;-66
2023/05/17 02:08:40;;;;;;;10.60;4.00;;;6.30;99.90;;;;;;5005004;28;20053;-66
2023/05/17 02:11:07;;;;;;;7.32;4.53;;;6.30;99.90;;;;;;4996515;28;20053;-67
2023/05/17 02:13:34;;;;;;;5.50;4.28;;;6.20;99.90;;;;;;5011736;28;20046;-66
2023/05/17 02:16:02;;;;;;;7.80;3.90;;;6.20;99.90;;;;;;5015878;28;20394;-66
2023/05/17 02:18:34;;;;;;;11.05;4.35;;;6.10;99.90;;;;;;5000901;28;20414;-66
2023/05/17 02:21:02;;;;;;;9.52;4.47;;;6.10;99.90;;;;;;4979791;28;20056;-65
2023/05/17 02:23:29;;;;;;;8.43;4.40;;;6.00;99.90;;;;;;5012300;28;20485;-66
2023/05/17 02:25:56;;;;;;;9.10;4.20;;;6.10;99.90;;;;;;5020357;28;20045;-66
2023/05/17 02:28:23;;;;;;;6.78;4.03;;;6.00;99.90;;;;;;5016198;28;20062;-67
2023/05/17 02:30:51;;;;;;;6.57;4.03;;;6.00;99.90;;;;;;5011119;28;20080;-67
2023/05/17 02:33:20;;;;;;;8.38;3.78;;;5.90;99.90;;;;;;5014186;28;20458;-67
2023/05/17 02:35:49;;;;;;;6.78;4.05;;;5.90;99.90;;;;;;5009758;28;20059;-67
2023/05/17 02:38:18;;;;;;;6.18;3.88;;;5.80;99.90;;;;;;4976217;28;20485;-67
2023/05/17 02:40:46;;;;;;;8.25;3.97;;;5.80;99.90;;;;;;5009657;28;20044;-67
2023/05/17 02:43:13;;;;;;;12.00;4.35;;;5.80;99.90;;;;;;4991887;28;20093;-66
2023/05/17 02:45:42;;;;;;;7.15;4.18;;;5.80;99.90;;;;;;5017688;28;20100;-66
2023/05/17 02:48:11;;;;;;;8.53;4.30;;;5.80;99.90;;;;;;5001689;28;20038;-67
2023/05/17 02:50:39;;;;;;;5.03;4.00;;;5.80;99.90;;;;;;5002350;28;20391;-67
2023/05/17 02:53:06;;;;;;;8.57;4.00;;;5.80;99.90;;;;;;5013162;28;20478;-66
2023/05/17 02:55:33;;;;;;;6.28;4.07;;;5.80;99.90;;;;;;5017509;28;20237;-67
2023/05/17 02:58:01;;;;;;;5.38;4.00;;;5.70;99.90;;;;;;4993025;28;20046;-66
2023/05/17 03:00:28;;;;;;;7.65;4.90;;;5.80;99.90;;;;;;5000712;28;20038;-67
2023/05/17 03:02:56;;;;;;;11.80;4.30;;;5.70;99.90;;;;;;4976605;28;20418;-67
2023/05/17 03:05:24;;;;;;;9.63;4.13;;;5.70;99.90;;;;;;5005693;28;20050;-67
2023/05/17 03:07:53;;;;;;;7.57;4.07;;;5.70;99.90;;;;;;5001475;28;20073;-67
2023/05/17 03:10:21;;;;;;;6.07;4.40;;;5.70;99.90;;;;;;4992445;28;20402;-67
2023/05/17 03:12:48;;;;;;;7.22;4.03;;;5.70;99.90;;;;;;4995970;28;20056;-68
2023/05/17 03:15:19;;;;;;;6.90;4.32;;;5.70;99.90;;;;;;5001232;28;20108;-67
2023/05/17 03:17:47;;;;;;;8.05;4.30;;;5.70;99.90;;;;;;5014413;28;20061;-66
2023/05/17 03:20:17;;;;;;;7.45;3.88;;;5.70;99.90;;;;;;5007277;28;20042;-67
2023/05/17 03:22:46;;;;;;;8.35;4.43;;;5.60;99.90;;;;;;4976990;28;20061;-67
2023/05/17 03:25:13;;;;;;;12.25;5.40;;;5.60;99.90;;;;;;4997665;28;20052;-67
2023/05/17 03:27:41;;;;;;;9.10;4.47;;;5.60;99.90;;;;;;4996759;28;20041;-67
2023/05/17 03:30:09;;;;;;;7.50;4.03;;;5.60;99.90;;;;;;4973806;28;20042;-67
2023/05/17 03:32:39;;;;;;;7.72;4.18;;;5.60;99.90;;;;;;4998918;28;20065;-67
2023/05/17 03:35:07;;;;;;;5.93;4.03;;;5.60;99.90;;;;;;5008816;28;20137;-67
2023/05/17 03:37:35;;;;;;;10.45;4.32;;;5.50;99.90;;;;;;4999408;28;20046;-67
2023/05/17 03:40:04;;;;;;;11.15;4.03;;;5.50;99.90;;;;;;5001210;28;20038;-67
2023/05/17 03:42:31;;;;;;;8.85;4.20;;;5.50;99.90;;;;;;4993133;28;20038;-67
2023/05/17 03:44:59;;;;;;;7.28;3.85;;;5.50;99.90;;;;;;4999130;28;20413;-67
2023/05/17 03:47:27;;;;;;;6.93;3.75;;;5.60;99.90;;;;;;4983128;28;20529;-67
2023/05/17 03:49:54;;;;;;;10.05;4.20;;;5.60;99.90;;;;;;5000133;28;20042;-67
2023/05/17 03:52:22;;;;;;;5.18;3.60;;;5.60;99.90;;;;;;5006898;28;20058;-67
2023/05/17 03:54:50;;;;;;;7.30;3.80;;;5.60;99.90;;;;;;4997760;28;20080;-67
2023/05/17 03:57:18;;;;;;;8.10;4.25;;;5.70;99.90;;;;;;5009199;28;20041;-67
2023/05/17 03:59:45;;;;;;;7.22;3.88;;;5.70;99.90;;;;;;5012704;28;20133;-67
2023/05/17 04:02:15;;;;;;;8.93;3.65;;;5.70;99.90;;;;;;4996316;28;20137;-67
2023/05/17 04:04:50;;;;;;;6.35;3.88;;;5.80;99.90;;;;;;4998704;28;20038;-66
2023/05/17 04:07:18;;;;;;;9.07;5.10;;;5.80;99.90;;;;;;5006164;28;20056;-66
2023/05/17 04:09:46;;;;;;;8.43;3.88;;;5.90;99.90;;;;;;4989190;28;20603;-67
2023/05/17 04:12:13;;;;;;;7.10;3.97;;;6.00;99.90;;;;;;4999701;28;20108;-67
2023/05/17 04:14:41;;;;;;;6.57;3.72;;;6.10;99.90;;;;;;4999940;28;20142;-67
2023/05/17 04:17:08;;;;;;;6.72;3.50;;;6.20;99.90;;;;;;5003983;28;20041;-67
2023/05/17 04:19:36;;;;;;;9.35;3.50;;;6.30;99.90;;;;;;5006894;28;20042;-67
2023/05/17 04:22:04;;;;;;;8.15;3.50;;;6.40;99.90;;;;;;5016612;28;20575;-67
2023/05/17 04:24:31;;;;;;;8.15;3.50;;;6.50;99.90;;;;;;4982543;28;20112;-65
2023/05/17 04:26:58;;;;;;;7.13;3.63;;;6.50;99.90;;;;;;5005864;28;20066;-66
2023/05/17 04:29:29;;;;;;;8.75;3.88;;;6.60;99.90;;;;;;4995533;28;20111;-67
2023/05/17 04:31:58;;;;;;;9.10;3.88;;;6.70;99.90;;;;;;4978890;28;20454;-67
2023/05/17 04:34:26;;;;;;;7.78;4.50;;;6.80;99.90;;;;;;4995679;28;20125;-67
2023/05/17 04:36:55;;;;;;;5.55;3.63;;;6.90;99.90;;;;;;5000656;28;20053;-67
2023/05/17 04:39:24;;;;;;;9.73;4.40;;;6.90;99.90;;;;;;4993474;28;20046;-67
2023/05/17 04:41:51;;;;;;;10.52;3.80;;;7.00;99.90;;;;;;4993337;28;20470;-67
2023/05/17 04:44:19;;;;;;;8.82;4.35;;;7.00;99.90;;;;;;4993875;28;20468;-67
2023/05/17 04:46:47;;;;;;;6.45;3.97;;;7.20;99.90;;;;;;5012139;28;20065;-67
2023/05/17 04:49:14;;;;;;;9.82;4.78;;;7.10;99.90;;;;;;4986223;28;20532;-66
2023/05/17 04:51:42;;;;;;;8.32;3.75;;;7.30;99.90;;;;;;5002917;28;20044;-67
2023/05/17 04:54:10;;;;;;;7.13;3.72;;;7.30;99.90;;;;;;5003796;28;20061;-67
2023/05/17 04:56:39;;;;;;;7.97;4.10;;;7.40;99.90;;;;;;5004229;28;20509;-68
2023/05/17 04:59:12;;;;;;;5.80;3.83;;;7.40;99.90;;;;;;4994732;28;20456;-67
2023/05/17 05:01:39;;;;;;;6.05;3.72;;;7.50;99.90;;;;;;5015116;28;20038;-67
2023/05/17 05:04:07;;;;;;;10.30;3.95;;;7.60;99.90;;;;;;5010498;28;20046;-68
2023/05/17 05:06:39;;;;;;;9.65;4.55;;;7.60;99.90;;;;;;5002621;28;20041;-65
2023/05/17 05:09:07;;;;;;;7.40;3.88;;;7.70;99.90;;;;;;5010168;28;20111;-66
2023/05/17 05:11:36;;;;;;;9.10;3.85;;;7.80;99.90;;;;;;4996954;28;20102;-66
2023/05/17 05:14:05;;;;;;;8.80;4.00;;;7.80;99.90;;;;;;4990724;28;20434;-66
2023/05/17 05:16:32;;;;;;;13.13;4.20;;;7.90;99.90;;;;;;5006713;28;20045;-66
2023/05/17 05:19:00;;;;;;;8.88;4.40;;;8.00;99.90;;;;;;5005178;28;20565;-66
2023/05/17 05:21:29;;;;;;;6.00;4.20;;;8.20;99.90;;;;;;5005771;28;20038;-65
2023/05/17 05:23:58;;;;;;;5.72;3.72;;;8.30;99.90;;;;;;5016079;28;20132;-66
2023/05/17 05:26:25;;;;;;;9.32;4.25;;;8.40;99.90;;;;;;5006293;28;20053;-66
2023/05/17 05:28:55;;;;;;;11.55;4.75;;;8.50;99.90;;;;;;5008378;28;20128;-66
2023/05/17 05:31:24;;;;;;;8.98;3.95;;;8.50;99.90;;;;;;5012920;28;20054;-66
2023/05/17 05:33:53;;;;;;;6.68;3.97;;;8.60;99.90;;;;;;5005475;28;20049;-67
2023/05/17 05:36:21;;;;;;;7.47;4.47;;;8.80;99.90;;;;;;4989860;28;20130;-67
2023/05/17 05:38:52;;;;;;;8.57;3.78;;;9.00;99.90;;;;;;5007871;28;20137;-66
2023/05/17 05:41:20;;;;;;;7.90;4.22;;;9.00;99.90;;;;;;4979605;28;20046;-68
2023/05/17 05:43:47;;;;;;;10.40;3.90;;;9.00;99.90;;;;;;4989590;28;20463;-67
2023/05/17 05:46:15;;;;;;;10.50;4.00;;;9.00;99.90;;;;;;4989380;28;20062;-67
2023/05/17 05:48:43;;;;;;;7.47;3.95;;;8.80;99.90;;;;;;4988701;28;20045;-66
2023/05/17 05:51:11;;;;;;;11.18;4.65;;;9.00;99.90;;;;;;5005296;28;20041;-67
2023/05/17 05:53:41;;;;;;;6.15;4.20;;;9.00;99.90;;;;;;5005900;28;20045;-67
2023/05/17 05:56:08;;;;;;;7.60;4.45;;;9.10;99.90;;;;;;5027198;28;20127;-67
2023/05/17 05:58:36;;;;;;;8.15;3.90;;;9.40;99.90;;;;;;5003093;28;20453;-66
2023/05/17 06:01:04;;;;;;;9.02;4.50;;;9.50;99.90;;;;;;4990862;28;20129;-67
2023/05/17 06:03:32;;;;;;;10.52;4.07;;;9.50;99.90;;;;;;5021474;28;20044;-67
2023/05/17 06:06:00;;;;;;;10.13;4.90;;;9.40;99.90;;;;;;5022432;28;20129;-68
2023/05/17 06:08:27;;;;;;;11.60;5.63;;;9.50;99.90;;;;;;5022494;28;20049;-67
2023/05/17 06:10:54;;;;;;;10.43;5.20;;;9.70;99.90;;;;;;5010031;28;20038;-66
2023/05/17 06:13:22;;;;;;;10.20;4.50;;;9.70;99.90;;;;;;5014711;28;20128;-71
2023/05/17 06:15:50;;;;;;;10.10;4.82;;;9.80;99.90;;;;;;5022843;28;20049;-65
2023/05/17 06:18:17;;;;;;;8.50;4.60;;;10.00;99.90;;;;;;5024984;28;20046;-66
2023/05/17 06:20:45;;;;;;;8.27;4.63;;;9.80;99.90;;;;;;5005223;28;20049;-66
2023/05/17 06:23:13;;;;;;;8.43;4.22;;;10.00;99.90;;;;;;5011351;28;20042;-66
2023/05/17 06:25:41;;;;;;;10.60;4.60;;;10.10;99.90;;;;;;5023412;28;20132;-67
2023/05/17 06:28:09;;;;;;;11.98;4.70;;;10.00;99.90;;;;;;5004496;28;20108;-66
2023/05/17 06:30:36;;;;;;;10.85;4.53;;;10.00;99.90;;;;;;5025007;28;20096;-68
2023/05/17 06:33:04;;;;;;;10.73;4.70;;;9.90;99.90;;;;;;5025842;28;20115;-67
2023/05/17 06:35:31;;;;;;;11.68;4.68;;;10.20;99.90;;;;;;5023340;28;20057;-67
2023/05/17 06:38:13;;;;;;;10.07;4.88;;;10.20;99.90;;;;;;5019469;28;20124;-65
2023/05/17 06:40:41;;;;;;;10.68;5.03;;;10.30;99.90;;;;;;5023514;28;20099;-66
2023/05/17 06:43:08;;;;;;;9.57;4.85;;;10.20;99.90;;;;;;5023578;28;20132;-66
2023/05/17 06:45:36;;;;;;;11.70;5.25;;;10.00;99.90;;;;;;5021866;28;20042;-66
2023/05/17 06:48:03;;;;;;;10.13;5.05;;;10.10;99.90;;;;;;5007776;28;20092;-65
2023/05/17 06:50:31;;;;;;;8.60;5.13;;;10.20;99.90;;;;;;5017284;28;20113;-67
2023/05/17 06:52:58;;;;;;;10.18;4.88;;;10.30;99.90;;;;;;5022934;28;20049;-67
2023/05/17 06:55:26;;;;;;;10.90;4.97;;;10.40;99.90;;;;;;5006146;28;20104;-68
2023/05/17 06:57:56;;;;;;;12.30;5.72;;;10.70;99.90;;;;;;5020041;28;20153;-67
2023/05/17 07:00:23;;;;;;;8.90;5.38;;;10.70;99.90;;;;;;5015978;28;20153;-67
2023/05/17 07:02:51;;;;;;;12.63;5.38;;;10.90;99.90;;;;;;5007709;28;20557;-66
2023/05/17 07:05:19;;;;;;;10.45;5.38;;;10.90;99.90;;;;;;5011241;28;20119;-67
2023/05/17 07:07:47;;;;;;;8.93;5.15;;;10.80;99.90;;;;;;5016546;28;20044;-67
2023/05/17 07:10:15;;;;;;;13.52;7.93;;;10.80;99.90;;;;;;5015050;28;20137;-67
2023/05/17 07:12:42;;;;;;;9.48;5.03;;;11.00;99.90;;;;;;5006114;28;20045;-66
2023/05/17 07:15:10;;;;;;;13.93;5.10;;;11.10;99.90;;;;;;4987706;28;20089;-67
2023/05/17 07:17:37;;;;;;;12.68;5.20;;;11.10;99.90;;;;;;5009854;28;20132;-67
2023/05/17 07:20:07;;;;;;;12.35;5.50;;;11.40;99.90;;;;;;5019021;28;20045;-67
2023/05/17 07:22:36;;;;;;;11.18;5.03;;;11.60;99.90;;;;;;5010956;28;20050;-65
2023/05/17 07:25:07;;;;;;;10.70;4.97;;;11.90;99.90;;;;;;5011882;28;20416;-66
2023/05/17 07:27:34;;;;;;;11.88;5.50;;;12.00;99.90;;;;;;5000112;28;20108;-66
2023/05/17 07:30:02;;;;;;;17.75;6.18;;;11.80;99.90;;;;;;5000760;28;20254;-67
2023/05/17 07:32:31;;;;;;;15.13;6.28;;;11.90;99.90;;;;;;5018348;28;20057;-65
2023/05/17 07:35:01;;;;;;;10.80;5.65;;;12.20;99.90;;;;;;5004483;28;20120;-68
2023/05/17 07:37:28;;;;;;;12.18;5.47;;;12.40;99.90;;;;;;5013632;28;20076;-68
2023/05/17 07:39:55;;;;;;;10.32;5.60;;;12.40;99.90;;;;;;5011295;28;20034;-66
2023/05/17 07:42:23;;;;;;;9.90;5.45;;;12.60;99.90;;;;;;4991459;28;20050;-66
2023/05/17 07:44:50;;;;;;;9.73;5.53;;;12.50;99.90;;;;;;5004014;28;20041;-67
2023/05/17 07:47:17;;;;;;;11.82;5.50;;;11.90;99.90;;;;;;5014354;28;20104;-67
2023/05/17 07:49:45;;;;;;;12.88;6.35;;;11.90;99.90;;;;;;5021473;28;20129;-64
2023/05/17 07:52:12;;;;;;;10.38;5.60;;;12.30;99.90;;;;;;5029270;28;20132;-65
2023/05/17 07:54:40;;;;;;;13.43;5.93;;;12.30;99.90;;;;;;4989725;28;20069;-65
2023/05/17 07:57:10;;;;;;;14.05;6.65;;;12.30;99.90;;;;;;5008612;28;20049;-66
2023/05/17 07:59:38;;;;;;;8.23;5.43;;;12.30;99.90;;;;;;5020771;28;20123;-66
2023/05/17 08:02:05;;;;;;;12.23;5.40;;;12.40;99.90;;;;;;5012673;28;20046;-66
2023/05/17 08:04:33;;;;;;;12.73;5.32;;;12.60;99.90;;;;;;5008289;28;20046;-66
2023/05/17 08:07:01;;;;;;;10.93;5.68;;;12.60;99.90;;;;;;5021314;28;20073;-66
2023/05/17 08:09:28;;;;;;;12.15;5.70;;;12.60;99.90;;;;;;5025651;28;20576;-66
2023/05/17 08:11:56;;;;;;;8.48;5.82;;;12.80;99.90;;;;;;5020098;28;20041;-66
2023/05/17 08:14:24;;;;;;;10.63;5.38;;;12.80;99.90;;;;;;4996079;28;20053;-66
2023/05/17 08:16:52;;;;;;;9.30;5.63;;;12.80;99.90;;;;;;4994836;28;20034;-67
2023/05/17 08:19:19;;;;;;;9.75;5.93;;;12.50;99.90;;;;;;5019842;28;20516;-66
2023/05/17 08:21:48;;;;;;;14.07;6.47;;;12.70;99.90;;;;;;4993379;28;20037;-66
2023/05/17 08:24:16;;;;;;;8.40;6.00;;;13.10;99.90;;;;;;5010919;28;20421;-67
2023/05/17 08:26:43;;;;;;;9.32;5.72;;;13.50;99.90;;;;;;5000691;28;20125;-65
2023/05/17 08:29:11;;;;;;;10.45;5.88;;;13.60;99.90;;;;;;5019249;28;20491;-66
2023/05/17 08:31:38;;;;;;;10.02;6.30;;;13.40;99.90;;;;;;5012054;28;20072;-66
2023/05/17 08:34:06;;;;;;;10.48;6.45;;;13.20;99.90;;;;;;5020539;28;20542;-66
2023/05/17 08:36:33;;;;;;;13.60;6.10;;;13.30;99.90;;;;;;4997276;28;20042;-67
2023/05/17 08:39:01;;;;;;;8.90;5.85;;;13.60;99.90;;;;;;5006534;28;20506;-67
2023/05/17 08:41:28;;;;;;;11.93;6.63;;;13.60;99.90;;;;;;5005139;28;20061;-67
2023/05/17 08:43:59;;;;;;;9.13;6.72;;;13.60;99.90;;;;;;5012758;28;20049;-67
2023/05/17 08:46:27;;;;;;;11.68;6.32;;;13.70;99.90;;;;;;5022042;28;20051;-67
2023/05/17 08:48:58;;;;;;;11.27;6.55;;;13.60;99.90;;;;;;5000515;28;20045;-67
2023/05/17 08:51:28;;;;;;;12.85;6.40;;;13.90;99.90;;;;;;5013567;28;20054;-67
2023/05/17 08:53:55;;;;;;;12.02;6.10;;;13.80;99.90;;;;;;5020628;28;20042;-67
2023/05/17 08:56:27;;;;;;;13.93;6.28;;;13.40;99.90;;;;;;5011920;28;20050;-67
2023/05/17 08:58:55;;;;;;;23.42;13.02;;;13.80;99.90;;;;;;5008113;28;20068;-67
2023/05/17 09:01:24;;;;;;;10.18;5.82;;;14.00;99.90;;;;;;5016476;28;20042;-67
2023/05/17 09:03:53;;;;;;;12.20;6.78;;;14.20;99.90;;;;;;5029742;28;20124;-67
2023/05/17 09:06:21;;;;;;;16.65;7.13;;;14.30;99.90;;;;;;5012602;28;20046;-67
2023/05/17 09:08:53;;;;;;;17.15;6.72;;;14.40;99.90;;;;;;5017772;28;20595;-67
2023/05/17 09:11:29;;;;;;;10.25;6.55;;;14.50;99.90;;;;;;5003362;28;20167;-67
2023/05/17 09:14:02;;;;;;;11.30;6.70;;;14.50;99.90;;;;;;4994975;28;20041;-67
2023/05/17 09:16:38;;;;;;;10.93;6.60;;;14.50;99.90;;;;;;5001733;28;20157;-67
2023/05/17 09:19:07;;;;;;;13.35;6.15;;;14.50;99.90;;;;;;5012255;28;20085;-67
2023/05/17 09:21:37;;;;;;;10.13;5.85;;;14.60;99.90;;;;;;5003603;28;20141;-68
2023/05/17 09:24:05;;;;;;;10.38;6.43;;;14.80;99.90;;;;;;5014747;28;20476;-67
2023/05/17 09:26:42;;;;;;;11.65;6.85;;;14.80;99.90;;;;;;5010184;28;20160;-67
2023/05/17 09:29:11;;;;;;;12.43;7.15;;;14.60;99.90;;;;;;4995085;28;20049;-67
2023/05/17 09:31:40;;;;;;;14.32;7.75;;;14.40;99.90;;;;;;5017797;28;20049;-67
2023/05/17 09:34:07;;;;;;;13.40;7.82;;;14.20;99.90;;;;;;5004715;28;20049;-66
2023/05/17 09:36:36;;;;;;;10.45;7.28;;;14.30;99.90;;;;;;5003908;28;20080;-67
2023/05/17 09:39:06;;;;;;;16.20;7.10;;;14.50;99.90;;;;;;5011324;28;20104;-66
2023/05/17 09:41:43;;;;;;;9.32;6.63;;;14.70;99.90;;;;;;4996715;28;20131;-67
2023/05/17 09:44:12;;;;;;;13.27;6.47;;;14.90;99.90;;;;;;5009061;28;20552;-68
2023/05/17 09:46:48;;;;;;;9.75;6.15;;;14.80;99.90;;;;;;5023143;28;20064;-67
2023/05/17 09:49:17;;;;;;;8.63;5.97;;;14.10;99.90;;;;;;5012102;28;20050;-67
2023/05/17 09:51:47;;;;;;;11.35;6.28;;;14.20;99.90;;;;;;5012395;28;20050;-67
2023/05/17 09:54:16;;;;;;;10.98;7.18;;;14.30;99.90;;;;;;5020715;28;20119;-66
2023/05/17 09:56:44;;;;;;;12.98;6.60;;;14.00;99.90;;;;;;5016645;28;20046;-67
2023/05/17 09:59:14;;;;;;;10.63;6.93;;;14.10;99.90;;;;;;5010757;28;20082;-67
2023/05/17 10:01:46;;;;;;;8.40;6.32;;;13.70;99.90;;;;;;5009912;28;20117;-66
2023/05/17 10:04:19;;;;;;;13.90;6.72;;;13.60;99.90;;;;;;5021627;28;20108;-66
2023/05/17 10:06:50;;;;;;;14.18;6.50;;;13.60;99.90;;;;;;5019245;28;20046;-67
2023/05/17 10:09:21;;;;;;;10.85;6.22;;;13.30;99.90;;;;;;5004790;28;20050;-67
2023/05/17 10:11:51;;;;;;;9.43;6.28;;;13.30;99.90;;;;;;4995402;28;20124;-67
2023/05/17 10:14:31;;;;;;;13.82;6.80;;;12.80;99.90;;;;;;5012212;28;20081;-66
2023/05/17 10:17:01;;;;;;;11.15;6.25;;;12.70;99.90;;;;;;5024549;28;20058;-66
2023/05/17 10:19:29;;;;;;;9.45;6.40;;;12.90;99.90;;;;;;5009383;28;20501;-67
2023/05/17 10:21:58;;;;;;;14.98;6.90;;;12.90;99.90;;;;;;4998966;28;20049;-67
2023/05/17 10:24:46;;;;;;;12.35;6.82;;;12.80;99.90;;;;;;5012243;28;20049;-67
2023/05/17 10:27:15;;;;;;;11.65;6.38;;;12.70;99.90;;;;;;5017656;28;20100;-67
2023/05/17 10:29:43;;;;;;;11.93;6.30;;;12.80;99.90;;;;;;5007623;28;20484;-66
2023/05/17 10:32:16;;;;;;;10.82;6.10;;;13.00;99.90;;;;;;5018745;28;20042;-67
2023/05/17 10:34:44;;;;;;;8.52;6.32;;;13.30;99.90;;;;;;5014383;28;20049;-66
2023/05/17 10:37:25;;;;;;;10.13;6.13;;;13.60;99.90;;;;;;5014837;28;20076;-67
2023/05/17 10:39:55;;;;;;;10.38;5.82;;;13.80;99.90;;;;;;5006163;28;20038;-67
2023/05/17 10:42:24;;;;;;;9.60;5.75;;;13.90;99.90;;;;;;5016497;28;20184;-66
2023/05/17 10:44:53;;;;;;;9.68;5.85;;;13.80;99.90;;;;;;5013616;28;20042;-67
2023/05/17 10:47:21;;;;;;;8.98;5.97;;;13.90;99.90;;;;;;4992039;28;20133;-67
2023/05/17 10:49:50;;;;;;;13.02;6.45;;;13.90;99.90;;;;;;5009476;28;20064;-66
2023/05/17 10:52:22;;;;;;;11.20;5.45;;;14.00;99.90;;;;;;5012476;28;20041;-65
2023/05/17 10:54:50;;;;;;;10.95;5.63;;;14.00;99.90;;;;;;5016666;28;20081;-66
2023/05/17 10:57:41;;;;;;;10.50;4.90;;;13.80;99.90;;;;;;5020940;28;20050;-67
2023/05/17 11:00:26;;;;;;;8.73;5.50;;;13.70;99.90;;;;;;5009251;28;20524;-67
2023/05/17 11:03:13;;;;;;;9.00;5.38;;;13.90;99.90;;;;;;5009415;28;20044;-67
2023/05/17 11:05:43;;;;;;;9.57;5.60;;;14.00;99.90;;;;;;5002385;28;20050;-66
2023/05/17 11:08:13;;;;;;;9.80;5.95;;;13.90;99.90;;;;;;5009195;28;20038;-67
2023/05/17 11:11:08;;;;;;;9.73;5.60;;;13.70;99.90;;;;;;4992958;28;20050;-66
2023/05/17 11:13:56;;;;;;;10.38;5.78;;;14.00;99.90;;;;;;4981851;28;20405;-65
2023/05/17 11:16:35;;;;;;;9.23;5.28;;;14.20;99.90;;;;;;5014490;28;20034;-66
2023/05/17 11:19:07;;;;;;;10.07;5.60;;;14.20;99.90;;;;;;4993402;28;20050;-66
2023/05/17 11:21:35;;;;;;;9.20;5.68;;;14.10;99.90;;;;;;4994679;28;20123;-66
2023/05/17 11:24:04;;;;;;;10.05;5.38;;;13.60;99.90;;;;;;4993437;28;20053;-65
2023/05/17 11:26:36;;;;;;;8.52;5.53;;;13.70;99.90;;;;;;4999037;28;20046;-69
2023/05/17 11:29:11;;;;;;;13.18;6.22;;;13.80;99.90;;;;;;5012229;28;20049;-67
2023/05/17 11:31:44;;;;;;;9.63;5.43;;;13.70;99.90;;;;;;5008464;28;20097;-68
2023/05/17 11:34:11;;;;;;;9.65;5.80;;;13.90;99.90;;;;;;4999959;28;20340;-68
2023/05/17 11:36:53;;;;;;;11.57;5.93;;;13.90;99.90;;;;;;5018026;28;20046;-68
2023/05/17 11:39:23;;;;;;;7.93;5.60;;;14.10;99.90;;;;;;5007538;28;20088;-67
2023/05/17 11:41:52;;;;;;;10.75;5.47;;;14.30;99.90;;;;;;5008743;28;20041;-67
2023/05/17 11:44:30;;;;;;;10.25;6.47;;;14.40;99.90;;;;;;5024507;28;20525;-68
2023/05/17 11:47:01;;;;;;;14.07;8.07;;;14.00;99.90;;;;;;5009160;28;20444;-67
2023/05/17 11:49:31;;;;;;;10.63;6.00;;;14.30;99.90;;;;;;4975039;28;20514;-67
2023/05/17 11:52:03;;;;;;;11.07;6.20;;;14.40;99.90;;;;;;5008149;28;20052;-68
2023/05/17 11:54:31;;;;;;;10.93;6.35;;;14.70;99.90;;;;;;5016324;28;20529;-66
2023/05/17 11:57:01;;;;;;;9.90;5.78;;;14.80;99.90;;;;;;5007060;28;20533;-68
2023/05/17 11:59:35;;;;;;;14.82;5.90;;;15.00;99.90;;;;;;5010793;28;20574;-66
2023/05/17 12:02:03;;;;;;;12.18;6.38;;;15.10;99.90;;;;;;5011212;28;20077;-67
2023/05/17 12:04:36;;;;;;;8.63;5.85;;;15.20;99.90;;;;;;5008520;28;20053;-67
2023/05/17 12:07:04;;;;;;;9.30;5.95;;;15.10;99.90;;;;;;5009136;28;20042;-67
2023/05/17 12:09:31;;;;;;;8.98;6.15;;;15.20;99.90;;;;;;5008337;28;20053;-66
2023/05/17 12:12:03;;;;;;;8.10;5.72;;;15.00;99.90;;;;;;5011045;28;20149;-68
2023/05/17 12:14:30;;;;;;;12.98;6.93;;;14.80;99.90;;;;;;4994566;28;20041;-66
2023/05/17 12:17:01;;;;;;;9.02;6.40;;;14.70;99.90;;;;;;5020401;28;20155;-68
2023/05/17 12:19:29;;;;;;;10.90;6.00;;;14.70;99.90;;;;;;5020550;28;20046;-67
2023/05/17 12:22:13;;;;;;;9.98;6.15;;;14.60;99.90;;;;;;5021853;28;20457;-65
2023/05/17 12:24:42;;;;;;;10.90;6.22;;;14.90;99.90;;;;;;5011336;28;20418;-70
2023/05/17 12:27:09;;;;;;;11.13;5.60;;;15.10;99.90;;;;;;5011766;28;20096;-69
2023/05/17 12:29:38;;;;;;;11.05;6.47;;;14.90;99.90;;;;;;5020809;28;20057;-66
2023/05/17 12:32:08;;;;;;;12.05;6.55;;;15.00;99.90;;;;;;5013564;28;20517;-66
2023/05/17 12:34:35;;;;;;;10.82;6.00;;;15.30;99.90;;;;;;5007348;28;20045;-66
2023/05/17 12:37:08;;;;;;;8.07;5.70;;;15.30;99.90;;;;;;5017064;28;20128;-65
2023/05/17 12:39:37;;;;;;;11.88;6.50;;;15.40;99.90;;;;;;5006772;28;20038;-66
2023/05/17 12:42:05;;;;;;;10.15;5.90;;;15.40;99.90;;;;;;5025439;28;20068;-66
2023/05/17 12:44:32;;;;;;;9.98;5.97;;;15.30;99.90;;;;;;5020547;28;20064;-68
2023/05/17 12:47:02;;;;;;;12.05;8.23;;;15.30;99.90;;;;;;5020363;28;20524;-68
2023/05/17 12:49:29;;;;;;;10.88;6.57;;;15.00;99.90;;;;;;5013218;28;20061;-68
2023/05/17 12:52:04;;;;;;;8.02;6.53;;;15.00;99.90;;;;;;4976104;28;20050;-67
2023/05/17 12:54:38;;;;;;;10.68;5.53;;;15.10;99.90;;;;;;4994304;28;20119;-67
2023/05/17 12:57:10;;;;;;;11.85;6.07;;;15.20;99.90;;;;;;4997775;28;20053;-67
2023/05/17 12:59:46;;;;;;;10.45;6.38;;;14.70;99.90;;;;;;5012155;28;20412;-67
2023/05/17 13:02:15;;;;;;;11.35;7.07;;;14.30;99.90;;;;;;5013910;28;20026;-67